sensor_id;sensor_type;location;lat;lon;timestamp;pressure;altitude;pressure_sealevel;temperature;humidity
76201;BME280;64981;52.930;9.266;2023-04-28T00:01:27;101468.56;;;6.52;63.04
76201;BME280;64981;52.930;9.266;2023-04-28T00:03:53;101476.09;;;6.68;62.42
76201;BME280;64981;52.930;9.266;2023-04-28T00:06:19;101477.06;;;6.44;62.86
76201;BME280;64981;52.930;9.266;2023-04-28T00:08:45;101462.16;;;6.45;62.77
76201;BME280;64981;52.930;9.266;2023-04-28T00:11:10;101467.88;;;6.72;62.13
76201;BME280;64981;52.930;9.266;2023-04-28T00:13:37;101454.28;;;6.67;61.75
76201;BME280;64981;52.930;9.266;2023-04-28T00:16:02;101466.22;;;6.60;62.64
76201;BME280;64981;52.930;9.266;2023-04-28T00:18:28;101430.41;;;6.26;62.82
76201;BME280;64981;52.930;9.266;2023-04-28T00:20:55;101460.94;;;6.49;62.98
76201;BME280;64981;52.930;9.266;2023-04-28T00:23:20;101453.06;;;6.49;63.29
76201;BME280;64981;52.930;9.266;2023-04-28T00:25:51;101435.66;;;6.37;63.31
76201;BME280;64981;52.930;9.266;2023-04-28T00:28:17;101446.66;;;6.42;62.90
76201;BME280;64981;52.930;9.266;2023-04-28T00:30:42;101432.19;;;6.25;62.95
76201;BME280;64981;52.930;9.266;2023-04-28T00:33:08;101450.22;;;6.30;63.21
76201;BME280;64981;52.930;9.266;2023-04-28T00:35:33;101437.69;;;6.44;62.67
76201;BME280;64981;52.930;9.266;2023-04-28T00:37:59;101426.13;;;6.36;62.33
76201;BME280;64981;52.930;9.266;2023-04-28T00:40:33;101419.53;;;6.30;62.98
76201;BME280;64981;52.930;9.266;2023-04-28T00:42:58;101435.88;;;6.34;63.13
76201;BME280;64981;52.930;9.266;2023-04-28T00:45:24;101438.75;;;6.31;63.38
76201;BME280;64981;52.930;9.266;2023-04-28T00:47:49;101430.63;;;6.34;63.11
76201;BME280;64981;52.930;9.266;2023-04-28T00:50:15;101427.06;;;6.35;63.25
76201;BME280;64981;52.930;9.266;2023-04-28T00:52:42;101418.13;;;6.37;62.78
76201;BME280;64981;52.930;9.266;2023-04-28T00:55:08;101419.41;;;6.21;62.97
76201;BME280;64981;52.930;9.266;2023-04-28T00:57:35;101414.28;;;6.30;63.69
76201;BME280;64981;52.930;9.266;2023-04-28T01:00:01;101377.34;;;6.11;62.50
76201;BME280;64981;52.930;9.266;2023-04-28T01:02:27;101407.38;;;6.40;63.18
76201;BME280;64981;52.930;9.266;2023-04-28T01:04:56;101410.50;;;6.34;62.94
76201;BME280;64981;52.930;9.266;2023-04-28T01:07:22;101413.13;;;6.45;62.30
76201;BME280;64981;52.930;9.266;2023-04-28T01:09:47;101409.06;;;6.52;62.71
76201;BME280;64981;52.930;9.266;2023-04-28T01:12:13;101408.44;;;6.49;62.61
76201;BME280;64981;52.930;9.266;2023-04-28T01:14:39;101405.03;;;6.48;62.51
76201;BME280;64981;52.930;9.266;2023-04-28T01:17:05;101409.31;;;6.38;62.74
76201;BME280;64981;52.930;9.266;2023-04-28T01:19:31;101411.44;;;6.33;62.77
76201;BME280;64981;52.930;9.266;2023-04-28T01:21:56;101405.94;;;6.36;62.90
76201;BME280;64981;52.930;9.266;2023-04-28T01:24:22;101387.50;;;6.27;62.32
76201;BME280;64981;52.930;9.266;2023-04-28T01:26:47;101407.75;;;6.36;62.39
76201;BME280;64981;52.930;9.266;2023-04-28T01:29:13;101406.69;;;6.38;62.04
76201;BME280;64981;52.930;9.266;2023-04-28T01:31:38;101395.81;;;6.32;62.06
76201;BME280;64981;52.930;9.266;2023-04-28T01:34:05;101399.25;;;6.21;61.95
76201;BME280;64981;52.930;9.266;2023-04-28T01:36:31;101397.94;;;6.16;63.13
76201;BME280;64981;52.930;9.266;2023-04-28T01:38:57;101393.06;;;6.11;62.72
76201;BME280;64981;52.930;9.266;2023-04-28T01:41:22;101390.28;;;5.90;63.13
76201;BME280;64981;52.930;9.266;2023-04-28T01:43:48;101385.78;;;6.15;62.78
76201;BME280;64981;52.930;9.266;2023-04-28T01:46:14;101374.34;;;6.16;61.79
76201;BME280;64981;52.930;9.266;2023-04-28T01:48:39;101375.06;;;6.18;61.07
76201;BME280;64981;52.930;9.266;2023-04-28T01:51:05;101381.25;;;6.28;60.99
76201;BME280;64981;52.930;9.266;2023-04-28T01:53:31;101362.91;;;6.28;60.91
76201;BME280;64981;52.930;9.266;2023-04-28T01:55:56;101375.06;;;6.29;60.37
76201;BME280;64981;52.930;9.266;2023-04-28T01:58:23;101368.41;;;6.36;60.31
76201;BME280;64981;52.930;9.266;2023-04-28T02:00:48;101366.97;;;6.32;59.85
76201;BME280;64981;52.930;9.266;2023-04-28T02:03:14;101338.72;;;6.13;60.44
76201;BME280;64981;52.930;9.266;2023-04-28T02:05:40;101352.88;;;6.22;59.59
76201;BME280;64981;52.930;9.266;2023-04-28T02:08:06;101346.09;;;6.41;59.02
76201;BME280;64981;52.930;9.266;2023-04-28T02:10:31;101325.81;;;6.21;59.73
76201;BME280;64981;52.930;9.266;2023-04-28T02:12:57;101340.97;;;6.29;59.95
76201;BME280;64981;52.930;9.266;2023-04-28T02:15:22;101333.22;;;6.16;59.58
76201;BME280;64981;52.930;9.266;2023-04-28T02:17:48;101311.63;;;6.13;59.31
76201;BME280;64981;52.930;9.266;2023-04-28T02:20:14;101331.06;;;6.32;58.93
76201;BME280;64981;52.930;9.266;2023-04-28T02:22:39;101324.41;;;5.95;58.83
76201;BME280;64981;52.930;9.266;2023-04-28T02:25:06;101328.69;;;6.07;58.72
76201;BME280;64981;52.930;9.266;2023-04-28T02:27:34;101325.47;;;6.26;58.13
76201;BME280;64981;52.930;9.266;2023-04-28T02:30:03;101318.56;;;6.36;57.67
76201;BME280;64981;52.930;9.266;2023-04-28T02:32:29;101330.09;;;6.33;57.49
76201;BME280;64981;52.930;9.266;2023-04-28T02:34:56;101320.56;;;6.21;58.67
76201;BME280;64981;52.930;9.266;2023-04-28T02:37:21;101317.38;;;6.29;58.01
76201;BME280;64981;52.930;9.266;2023-04-28T02:39:47;101316.88;;;6.24;58.30
76201;BME280;64981;52.930;9.266;2023-04-28T02:42:13;101295.19;;;6.11;58.33
76201;BME280;64981;52.930;9.266;2023-04-28T02:44:38;101307.94;;;6.26;58.10
76201;BME280;64981;52.930;9.266;2023-04-28T02:47:04;101311.16;;;6.30;58.13
76201;BME280;64981;52.930;9.266;2023-04-28T02:49:29;101300.91;;;6.16;59.11
76201;BME280;64981;52.930;9.266;2023-04-28T02:51:55;101270.75;;;5.88;57.87
76201;BME280;64981;52.930;9.266;2023-04-28T02:54:21;101288.75;;;6.26;57.53
76201;BME280;64981;52.930;9.266;2023-04-28T02:56:57;101286.84;;;6.17;58.07
76201;BME280;64981;52.930;9.266;2023-04-28T02:59:23;101273.50;;;5.97;58.06
76201;BME280;64981;52.930;9.266;2023-04-28T03:01:49;101273.88;;;6.04;58.13
76201;BME280;64981;52.930;9.266;2023-04-28T03:04:16;101242.16;;;5.74;57.96
76201;BME280;64981;52.930;9.266;2023-04-28T03:06:42;101262.66;;;5.69;57.80
76201;BME280;64981;52.930;9.266;2023-04-28T03:09:08;101279.31;;;6.12;57.93
76201;BME280;64981;52.930;9.266;2023-04-28T03:11:35;101265.97;;;6.15;57.16
76201;BME280;64981;52.930;9.266;2023-04-28T03:14:01;101248.34;;;6.17;56.63
76201;BME280;64981;52.930;9.266;2023-04-28T03:16:26;101261.91;;;6.22;56.42
76201;BME280;64981;52.930;9.266;2023-04-28T03:18:52;101246.53;;;6.29;56.73
76201;BME280;64981;52.930;9.266;2023-04-28T03:21:18;101259.91;;;6.03;57.06
76201;BME280;64981;52.930;9.266;2023-04-28T03:23:43;101253.09;;;6.23;56.34
76201;BME280;64981;52.930;9.266;2023-04-28T03:26:09;101241.78;;;6.12;57.22
76201;BME280;64981;52.930;9.266;2023-04-28T03:28:35;101243.91;;;6.18;56.95
76201;BME280;64981;52.930;9.266;2023-04-28T03:31:01;101247.50;;;6.17;56.25
76201;BME280;64981;52.930;9.266;2023-04-28T03:33:27;101226.53;;;6.17;56.74
76201;BME280;64981;52.930;9.266;2023-04-28T03:35:53;101230.94;;;6.16;56.83
76201;BME280;64981;52.930;9.266;2023-04-28T03:38:19;101209.50;;;6.11;55.84
76201;BME280;64981;52.930;9.266;2023-04-28T03:40:45;101225.16;;;6.33;55.80
76201;BME280;64981;52.930;9.266;2023-04-28T03:43:10;101201.63;;;6.11;56.28
76201;BME280;64981;52.930;9.266;2023-04-28T03:45:36;101213.41;;;6.17;55.67
76201;BME280;64981;52.930;9.266;2023-04-28T03:48:02;101207.78;;;6.21;56.00
76201;BME280;64981;52.930;9.266;2023-04-28T03:50:27;101208.91;;;6.39;55.86
76201;BME280;64981;52.930;9.266;2023-04-28T03:52:53;101205.84;;;6.34;55.78
76201;BME280;64981;52.930;9.266;2023-04-28T03:55:19;101201.44;;;6.35;55.70
76201;BME280;64981;52.930;9.266;2023-04-28T03:57:44;101205.25;;;6.31;54.86
76201;BME280;64981;52.930;9.266;2023-04-28T04:00:10;101202.31;;;6.13;55.66
76201;BME280;64981;52.930;9.266;2023-04-28T04:02:36;101194.41;;;6.24;55.25
76201;BME280;64981;52.930;9.266;2023-04-28T04:05:02;101201.38;;;6.14;55.87
76201;BME280;64981;52.930;9.266;2023-04-28T04:07:27;101184.28;;;6.31;55.32
76201;BME280;64981;52.930;9.266;2023-04-28T04:09:53;101188.28;;;6.46;55.22
76201;BME280;64981;52.930;9.266;2023-04-28T04:12:18;101190.16;;;6.55;54.53
76201;BME280;64981;52.930;9.266;2023-04-28T04:14:44;101182.16;;;6.25;55.48
76201;BME280;64981;52.930;9.266;2023-04-28T04:17:09;101181.25;;;6.03;55.67
76201;BME280;64981;52.930;9.266;2023-04-28T04:19:35;101180.59;;;6.22;55.13
76201;BME280;64981;52.930;9.266;2023-04-28T04:22:01;101175.03;;;6.16;55.14
76201;BME280;64981;52.930;9.266;2023-04-28T04:24:26;101174.38;;;6.34;54.70
76201;BME280;64981;52.930;9.266;2023-04-28T04:26:52;101175.53;;;6.41;55.23
76201;BME280;64981;52.930;9.266;2023-04-28T04:29:17;101170.94;;;6.23;55.00
76201;BME280;64981;52.930;9.266;2023-04-28T04:31:43;101171.19;;;6.20;54.98
76201;BME280;64981;52.930;9.266;2023-04-28T04:34:10;101151.25;;;6.28;54.45
76201;BME280;64981;52.930;9.266;2023-04-28T04:36:35;101166.22;;;6.17;55.20
76201;BME280;64981;52.930;9.266;2023-04-28T04:39:01;101158.19;;;6.18;55.13
76201;BME280;64981;52.930;9.266;2023-04-28T04:41:27;101156.00;;;6.34;54.58
76201;BME280;64981;52.930;9.266;2023-04-28T04:43:55;101150.84;;;6.44;54.51
76201;BME280;64981;52.930;9.266;2023-04-28T04:46:21;101151.94;;;6.41;54.45
76201;BME280;64981;52.930;9.266;2023-04-28T04:48:47;101140.09;;;6.47;54.20
76201;BME280;64981;52.930;9.266;2023-04-28T04:51:12;101141.03;;;6.46;53.87
76201;BME280;64981;52.930;9.266;2023-04-28T04:53:38;101138.88;;;6.51;53.83
76201;BME280;64981;52.930;9.266;2023-04-28T04:56:04;101137.63;;;6.34;54.39
76201;BME280;64981;52.930;9.266;2023-04-28T04:58:30;101134.19;;;6.34;54.29
76201;BME280;64981;52.930;9.266;2023-04-28T05:00:55;101139.72;;;6.51;54.45
76201;BME280;64981;52.930;9.266;2023-04-28T05:03:21;101132.75;;;6.62;53.79
76201;BME280;64981;52.930;9.266;2023-04-28T05:05:46;101127.56;;;6.50;54.36
76201;BME280;64981;52.930;9.266;2023-04-28T05:08:13;101130.19;;;6.71;54.08
76201;BME280;64981;52.930;9.266;2023-04-28T05:10:38;101129.22;;;6.72;53.95
76201;BME280;64981;52.930;9.266;2023-04-28T05:13:04;101130.50;;;6.89;53.76
76201;BME280;64981;52.930;9.266;2023-04-28T05:15:30;101130.31;;;6.70;53.89
76201;BME280;64981;52.930;9.266;2023-04-28T05:17:56;101122.19;;;6.73;54.31
76201;BME280;64981;52.930;9.266;2023-04-28T05:20:22;101129.25;;;6.93;53.49
76201;BME280;64981;52.930;9.266;2023-04-28T05:22:47;101121.47;;;6.82;54.26
76201;BME280;64981;52.930;9.266;2023-04-28T05:25:13;101128.44;;;6.92;53.54
76201;BME280;64981;52.930;9.266;2023-04-28T05:27:39;101116.75;;;7.06;53.48
76201;BME280;64981;52.930;9.266;2023-04-28T05:30:07;101118.00;;;6.81;54.05
76201;BME280;64981;52.930;9.266;2023-04-28T05:32:34;101103.63;;;7.06;53.69
76201;BME280;64981;52.930;9.266;2023-04-28T05:35:00;101115.38;;;7.11;54.23
76201;BME280;64981;52.930;9.266;2023-04-28T05:37:26;101111.22;;;7.30;53.52
76201;BME280;64981;52.930;9.266;2023-04-28T05:39:52;101111.44;;;7.57;52.38
76201;BME280;64981;52.930;9.266;2023-04-28T05:42:17;101111.78;;;7.43;52.82
76201;BME280;64981;52.930;9.266;2023-04-28T05:44:44;101112.38;;;7.86;52.23
76201;BME280;64981;52.930;9.266;2023-04-28T05:47:09;101108.16;;;7.64;52.42
76201;BME280;64981;52.930;9.266;2023-04-28T05:49:36;101106.25;;;7.76;51.99
76201;BME280;64981;52.930;9.266;2023-04-28T05:52:02;101108.72;;;7.78;52.19
76201;BME280;64981;52.930;9.266;2023-04-28T05:54:28;101112.78;;;7.91;50.87
76201;BME280;64981;52.930;9.266;2023-04-28T05:56:54;101109.47;;;7.99;51.15
76201;BME280;64981;52.930;9.266;2023-04-28T05:59:19;101108.94;;;8.14;51.59
76201;BME280;64981;52.930;9.266;2023-04-28T06:01:45;101103.81;;;8.13;51.72
76201;BME280;64981;52.930;9.266;2023-04-28T06:04:10;101099.22;;;8.05;51.37
76201;BME280;64981;52.930;9.266;2023-04-28T06:06:36;101097.44;;;8.35;50.93
76201;BME280;64981;52.930;9.266;2023-04-28T06:09:02;101093.00;;;8.35;50.54
76201;BME280;64981;52.930;9.266;2023-04-28T06:11:28;101089.25;;;8.38;51.28
76201;BME280;64981;52.930;9.266;2023-04-28T06:13:53;101090.38;;;8.54;50.43
76201;BME280;64981;52.930;9.266;2023-04-28T06:16:19;101091.75;;;8.68;50.19
76201;BME280;64981;52.930;9.266;2023-04-28T06:18:46;101090.19;;;8.85;49.80
76201;BME280;64981;52.930;9.266;2023-04-28T06:21:12;101089.31;;;9.03;49.76
76201;BME280;64981;52.930;9.266;2023-04-28T06:23:38;101084.97;;;9.12;49.39
76201;BME280;64981;52.930;9.266;2023-04-28T06:26:05;101092.09;;;9.39;48.20
76201;BME280;64981;52.930;9.266;2023-04-28T06:28:30;101084.78;;;9.33;48.24
76201;BME280;64981;52.930;9.266;2023-04-28T06:30:56;101083.00;;;9.51;47.70
76201;BME280;64981;52.930;9.266;2023-04-28T06:33:24;101082.38;;;9.39;47.72
76201;BME280;64981;52.930;9.266;2023-04-28T06:35:49;101083.66;;;9.35;47.92
76201;BME280;64981;52.930;9.266;2023-04-28T06:38:15;101077.63;;;9.52;48.19
76201;BME280;64981;52.930;9.266;2023-04-28T06:40:41;101080.88;;;9.64;47.31
76201;BME280;64981;52.930;9.266;2023-04-28T06:43:06;101070.84;;;9.67;47.15
76201;BME280;64981;52.930;9.266;2023-04-28T06:45:32;101072.06;;;9.91;47.73
76201;BME280;64981;52.930;9.266;2023-04-28T06:47:58;101078.22;;;10.09;47.31
76201;BME280;64981;52.930;9.266;2023-04-28T06:50:23;101067.56;;;10.01;47.02
76201;BME280;64981;52.930;9.266;2023-04-28T06:52:49;101070.19;;;10.18;46.00
76201;BME280;64981;52.930;9.266;2023-04-28T06:55:16;101071.47;;;10.50;46.17
76201;BME280;64981;52.930;9.266;2023-04-28T06:57:42;101060.63;;;10.78;45.26
76201;BME280;64981;52.930;9.266;2023-04-28T07:00:09;101077.75;;;11.00;45.23
76201;BME280;64981;52.930;9.266;2023-04-28T07:02:35;101069.19;;;10.98;45.82
76201;BME280;64981;52.930;9.266;2023-04-28T07:05:01;101063.44;;;11.36;44.96
76201;BME280;64981;52.930;9.266;2023-04-28T07:07:28;101063.97;;;11.56;44.47
76201;BME280;64981;52.930;9.266;2023-04-28T07:09:53;101057.31;;;11.94;43.24
76201;BME280;64981;52.930;9.266;2023-04-28T07:12:20;101048.06;;;11.90;44.35
76201;BME280;64981;52.930;9.266;2023-04-28T07:14:46;101062.28;;;11.97;43.53
76201;BME280;64981;52.930;9.266;2023-04-28T07:17:11;101052.19;;;11.93;42.92
76201;BME280;64981;52.930;9.266;2023-04-28T07:19:37;101048.41;;;12.11;43.31
76201;BME280;64981;52.930;9.266;2023-04-28T07:22:03;101070.25;;;12.05;43.23
76201;BME280;64981;52.930;9.266;2023-04-28T07:24:28;101058.50;;;12.32;43.00
76201;BME280;64981;52.930;9.266;2023-04-28T07:26:55;101049.41;;;12.42;43.03
76201;BME280;64981;52.930;9.266;2023-04-28T07:29:21;101054.72;;;12.59;42.96
76201;BME280;64981;52.930;9.266;2023-04-28T07:31:47;101055.19;;;12.70;42.93
76201;BME280;64981;52.930;9.266;2023-04-28T07:34:12;101055.16;;;12.94;42.23
76201;BME280;64981;52.930;9.266;2023-04-28T07:36:38;101054.94;;;13.12;42.53
76201;BME280;64981;52.930;9.266;2023-04-28T07:39:04;101046.69;;;12.99;42.84
76201;BME280;64981;52.930;9.266;2023-04-28T07:41:35;101037.88;;;13.15;42.07
76201;BME280;64981;52.930;9.266;2023-04-28T07:44:01;101043.81;;;13.17;42.13
76201;BME280;64981;52.930;9.266;2023-04-28T07:46:26;101040.22;;;13.10;42.50
76201;BME280;64981;52.930;9.266;2023-04-28T07:48:53;101039.09;;;12.96;42.94
76201;BME280;64981;52.930;9.266;2023-04-28T07:51:18;101047.00;;;13.04;42.74
76201;BME280;64981;52.930;9.266;2023-04-28T07:53:44;101041.91;;;12.94;42.46
76201;BME280;64981;52.930;9.266;2023-04-28T07:56:09;101039.31;;;12.62;43.45
76201;BME280;64981;52.930;9.266;2023-04-28T07:58:36;101042.94;;;12.29;44.68
76201;BME280;64981;52.930;9.266;2023-04-28T08:01:02;101028.25;;;12.34;43.66
76201;BME280;64981;52.930;9.266;2023-04-28T08:03:27;101044.94;;;12.27;44.22
76201;BME280;64981;52.930;9.266;2023-04-28T08:05:53;101037.81;;;12.11;44.38
76201;BME280;64981;52.930;9.266;2023-04-28T08:08:18;101028.88;;;12.04;44.77
76201;BME280;64981;52.930;9.266;2023-04-28T08:10:44;101035.84;;;12.21;44.78
76201;BME280;64981;52.930;9.266;2023-04-28T08:13:10;101033.53;;;12.34;44.79
76201;BME280;64981;52.930;9.266;2023-04-28T08:15:35;101020.91;;;12.44;44.82
76201;BME280;64981;52.930;9.266;2023-04-28T08:18:01;101016.31;;;12.47;44.82
76201;BME280;64981;52.930;9.266;2023-04-28T08:20:27;101014.28;;;12.65;44.90
76201;BME280;64981;52.930;9.266;2023-04-28T08:22:53;101024.50;;;12.76;44.19
76201;BME280;64981;52.930;9.266;2023-04-28T08:25:19;101019.06;;;12.77;44.21
76201;BME280;64981;52.930;9.266;2023-04-28T08:27:45;101026.22;;;12.69;44.62
76201;BME280;64981;52.930;9.266;2023-04-28T08:30:10;101022.06;;;12.58;44.31
76201;BME280;64981;52.930;9.266;2023-04-28T08:32:36;101037.59;;;12.69;43.73
76201;BME280;64981;52.930;9.266;2023-04-28T08:35:02;101030.97;;;12.81;44.16
76201;BME280;64981;52.930;9.266;2023-04-28T08:37:28;101022.53;;;12.86;44.06
76201;BME280;64981;52.930;9.266;2023-04-28T08:39:54;101023.03;;;12.89;44.19
76201;BME280;64981;52.930;9.266;2023-04-28T08:42:28;101011.53;;;13.05;43.27
76201;BME280;64981;52.930;9.266;2023-04-28T08:44:55;101026.31;;;13.00;43.61
76201;BME280;64981;52.930;9.266;2023-04-28T08:47:34;101025.22;;;12.62;44.63
76201;BME280;64981;52.930;9.266;2023-04-28T08:50:03;101014.88;;;12.91;44.87
76201;BME280;64981;52.930;9.266;2023-04-28T08:52:30;101015.03;;;12.97;44.61
76201;BME280;64981;52.930;9.266;2023-04-28T08:54:58;101018.50;;;13.06;43.95
76201;BME280;64981;52.930;9.266;2023-04-28T08:57:26;101020.44;;;13.20;44.93
76201;BME280;64981;52.930;9.266;2023-04-28T08:59:53;101014.72;;;12.92;44.16
76201;BME280;64981;52.930;9.266;2023-04-28T09:02:19;101008.44;;;12.85;44.35
76201;BME280;64981;52.930;9.266;2023-04-28T09:04:46;101014.59;;;12.78;44.85
76201;BME280;64981;52.930;9.266;2023-04-28T09:07:12;101008.25;;;13.03;44.03
76201;BME280;64981;52.930;9.266;2023-04-28T09:09:39;100995.53;;;12.90;45.00
76201;BME280;64981;52.930;9.266;2023-04-28T09:12:06;100994.94;;;13.11;44.25
76201;BME280;64981;52.930;9.266;2023-04-28T09:14:34;100997.16;;;12.91;44.58
76201;BME280;64981;52.930;9.266;2023-04-28T09:17:02;100994.22;;;12.70;44.89
76201;BME280;64981;52.930;9.266;2023-04-28T09:19:35;100983.28;;;12.73;45.29
76201;BME280;64981;52.930;9.266;2023-04-28T09:22:02;100984.25;;;12.72;45.52
76201;BME280;64981;52.930;9.266;2023-04-28T09:24:34;100991.66;;;13.01;45.17
76201;BME280;64981;52.930;9.266;2023-04-28T09:27:03;100993.69;;;12.91;44.45
76201;BME280;64981;52.930;9.266;2023-04-28T09:29:30;100990.91;;;12.84;44.71
76201;BME280;64981;52.930;9.266;2023-04-28T09:32:22;100995.84;;;12.79;45.73
76201;BME280;64981;52.930;9.266;2023-04-28T09:34:50;100986.06;;;12.96;44.97
76201;BME280;64981;52.930;9.266;2023-04-28T09:37:20;100981.03;;;13.09;44.87
76201;BME280;64981;52.930;9.266;2023-04-28T09:39:48;100986.59;;;12.83;45.03
76201;BME280;64981;52.930;9.266;2023-04-28T09:42:35;100983.56;;;12.94;46.80
76201;BME280;64981;52.930;9.266;2023-04-28T09:45:03;100985.94;;;13.20;47.41
76201;BME280;64981;52.930;9.266;2023-04-28T09:47:31;100984.75;;;12.92;46.39
76201;BME280;64981;52.930;9.266;2023-04-28T09:50:01;100979.06;;;13.03;47.18
76201;BME280;64981;52.930;9.266;2023-04-28T09:52:27;100982.53;;;13.04;47.42
76201;BME280;64981;52.930;9.266;2023-04-28T09:54:55;100968.53;;;12.87;47.26
76201;BME280;64981;52.930;9.266;2023-04-28T09:57:22;100981.25;;;13.00;48.66
76201;BME280;64981;52.930;9.266;2023-04-28T09:59:50;100986.22;;;12.94;48.15
76201;BME280;64981;52.930;9.266;2023-04-28T10:02:19;100988.53;;;12.97;51.38
76201;BME280;64981;52.930;9.266;2023-04-28T10:04:46;100979.03;;;13.11;51.14
76201;BME280;64981;52.930;9.266;2023-04-28T10:07:14;100979.06;;;13.03;50.10
76201;BME280;64981;52.930;9.266;2023-04-28T10:09:45;100977.22;;;13.12;52.12
76201;BME280;64981;52.930;9.266;2023-04-28T10:12:16;100971.81;;;12.97;51.03
76201;BME280;64981;52.930;9.266;2023-04-28T10:14:43;100980.97;;;13.25;51.89
76201;BME280;64981;52.930;9.266;2023-04-28T10:17:12;100971.03;;;13.19;52.19
76201;BME280;64981;52.930;9.266;2023-04-28T10:19:40;100972.81;;;13.27;50.25
76201;BME280;64981;52.930;9.266;2023-04-28T10:22:31;100971.56;;;13.45;50.72
76201;BME280;64981;52.930;9.266;2023-04-28T10:25:25;100972.75;;;13.43;50.62
76201;BME280;64981;52.930;9.266;2023-04-28T10:27:52;100969.09;;;13.44;52.80
76201;BME280;64981;52.930;9.266;2023-04-28T10:30:21;100965.25;;;13.46;50.46
76201;BME280;64981;52.930;9.266;2023-04-28T10:35:51;100968.28;;;13.35;52.61
76201;BME280;64981;52.930;9.266;2023-04-28T10:38:18;100961.50;;;13.33;51.35
76201;BME280;64981;52.930;9.266;2023-04-28T10:40:50;100958.84;;;13.33;52.71
76201;BME280;64981;52.930;9.266;2023-04-28T10:43:33;100966.53;;;13.50;52.14
76201;BME280;64981;52.930;9.266;2023-04-28T10:46:03;100950.69;;;13.42;51.50
76201;BME280;64981;52.930;9.266;2023-04-28T10:48:51;100949.59;;;13.29;53.74
76201;BME280;64981;52.930;9.266;2023-04-28T10:51:20;100951.47;;;13.20;53.72
76201;BME280;64981;52.930;9.266;2023-04-28T10:54:06;100936.53;;;13.19;53.91
76201;BME280;64981;52.930;9.266;2023-04-28T10:56:32;100951.59;;;13.27;51.18
76201;BME280;64981;52.930;9.266;2023-04-28T10:58:59;100940.63;;;13.30;50.69
76201;BME280;64981;52.930;9.266;2023-04-28T11:01:29;100927.44;;;13.44;52.49
76201;BME280;64981;52.930;9.266;2023-04-28T11:04:06;100920.78;;;13.48;50.93
76201;BME280;64981;52.930;9.266;2023-04-28T11:06:41;100926.22;;;13.55;50.17
76201;BME280;64981;52.930;9.266;2023-04-28T11:12:12;100921.06;;;13.53;48.81
76201;BME280;64981;52.930;9.266;2023-04-28T11:14:38;100928.13;;;13.38;48.21
76201;BME280;64981;52.930;9.266;2023-04-28T11:17:07;100928.03;;;13.55;48.68
76201;BME280;64981;52.930;9.266;2023-04-28T11:19:43;100919.13;;;13.47;49.36
76201;BME280;64981;52.930;9.266;2023-04-28T11:22:24;100927.88;;;13.56;50.54
76201;BME280;64981;52.930;9.266;2023-04-28T11:24:59;100920.78;;;13.48;48.95
76201;BME280;64981;52.930;9.266;2023-04-28T11:27:27;100912.38;;;13.14;49.56
76201;BME280;64981;52.930;9.266;2023-04-28T11:29:53;100919.69;;;13.35;50.18
76201;BME280;64981;52.930;9.266;2023-04-28T11:32:33;100914.00;;;13.46;49.70
76201;BME280;64981;52.930;9.266;2023-04-28T11:34:59;100913.19;;;13.45;48.89
76201;BME280;64981;52.930;9.266;2023-04-28T11:37:25;100909.53;;;13.46;50.19
76201;BME280;64981;52.930;9.266;2023-04-28T11:39:51;100905.97;;;13.77;49.89
76201;BME280;64981;52.930;9.266;2023-04-28T11:42:17;100905.50;;;13.50;49.16
76201;BME280;64981;52.930;9.266;2023-04-28T11:44:49;100904.38;;;13.45;49.98
76201;BME280;64981;52.930;9.266;2023-04-28T11:47:41;100900.28;;;13.65;49.93
76201;BME280;64981;52.930;9.266;2023-04-28T11:50:07;100888.31;;;13.84;48.49
76201;BME280;64981;52.930;9.266;2023-04-28T11:52:33;100882.56;;;13.95;50.00
76201;BME280;64981;52.930;9.266;2023-04-28T11:54:59;100880.53;;;14.05;47.11
76201;BME280;64981;52.930;9.266;2023-04-28T11:57:26;100873.28;;;14.14;48.84
76201;BME280;64981;52.930;9.266;2023-04-28T11:59:52;100878.34;;;14.23;46.53
76201;BME280;64981;52.930;9.266;2023-04-28T12:02:27;100875.50;;;14.25;48.03
76201;BME280;64981;52.930;9.266;2023-04-28T12:04:53;100873.69;;;14.25;47.64
76201;BME280;64981;52.930;9.266;2023-04-28T12:07:19;100872.69;;;14.41;47.38
76201;BME280;64981;52.930;9.266;2023-04-28T12:09:48;100863.75;;;14.78;47.02
76201;BME280;64981;52.930;9.266;2023-04-28T12:12:32;100863.06;;;14.90;47.35
76201;BME280;64981;52.930;9.266;2023-04-28T12:15:01;100875.72;;;14.88;46.86
76201;BME280;64981;52.930;9.266;2023-04-28T12:17:40;100864.69;;;14.91;47.27
76201;BME280;64981;52.930;9.266;2023-04-28T12:20:33;100864.88;;;15.04;46.17
76201;BME280;64981;52.930;9.266;2023-04-28T12:22:59;100863.53;;;14.94;45.05
76201;BME280;64981;52.930;9.266;2023-04-28T12:25:26;100859.09;;;15.16;44.47
76201;BME280;64981;52.930;9.266;2023-04-28T12:28:05;100862.28;;;15.26;44.95
76201;BME280;64981;52.930;9.266;2023-04-28T12:30:34;100861.56;;;15.38;44.61
76201;BME280;64981;52.930;9.266;2023-04-28T12:33:03;100846.34;;;15.11;43.49
76201;BME280;64981;52.930;9.266;2023-04-28T12:35:29;100839.63;;;15.15;43.84
76201;BME280;64981;52.930;9.266;2023-04-28T12:37:55;100837.88;;;15.22;44.93
76201;BME280;64981;52.930;9.266;2023-04-28T12:40:23;100844.56;;;15.18;44.74
76201;BME280;64981;52.930;9.266;2023-04-28T12:42:49;100849.53;;;15.21;44.61
76201;BME280;64981;52.930;9.266;2023-04-28T12:45:15;100841.03;;;15.32;44.03
76201;BME280;64981;52.930;9.266;2023-04-28T12:47:41;100834.19;;;15.23;44.91
76201;BME280;64981;52.930;9.266;2023-04-28T12:50:07;100827.59;;;15.40;45.84
76201;BME280;64981;52.930;9.266;2023-04-28T12:52:33;100829.13;;;15.77;44.89
76201;BME280;64981;52.930;9.266;2023-04-28T12:55:00;100827.06;;;15.73;44.47
76201;BME280;64981;52.930;9.266;2023-04-28T12:57:26;100822.13;;;15.70;44.28
76201;BME280;64981;52.930;9.266;2023-04-28T12:59:53;100831.41;;;16.08;44.32
76201;BME280;64981;52.930;9.266;2023-04-28T13:02:20;100836.56;;;16.09;43.39